sensor_id;sensor_type;location;lat;lon;timestamp;P1;durP1;ratioP1;P2;durP2;ratioP2
39020;SDS011;25188;51.958;5.842;2023-07-24T00:01:52;3.03;;;1.00;;
39020;SDS011;25188;51.958;5.842;2023-07-24T00:04:17;2.22;;;1.10;;
39020;SDS011;25188;51.958;5.842;2023-07-24T00:06:43;2.28;;;1.05;;
39020;SDS011;25188;51.958;5.842;2023-07-24T00:09:08;1.85;;;0.93;;
39020;SDS011;25188;51.958;5.842;2023-07-24T00:11:34;3.63;;;0.98;;
39020;SDS011;25188;51.958;5.842;2023-07-24T00:13:59;3.28;;;0.98;;
39020;SDS011;25188;51.958;5.842;2023-07-24T00:16:25;2.53;;;1.05;;
39020;SDS011;25188;51.958;5.842;2023-07-24T00:18:51;3.72;;;1.10;;
39020;SDS011;25188;51.958;5.842;2023-07-24T00:21:16;2.58;;;1.10;;
39020;SDS011;25188;51.958;5.842;2023-07-24T00:23:42;3.90;;;1.00;;
39020;SDS011;25188;51.958;5.842;2023-07-24T00:26:07;4.15;;;1.13;;
39020;SDS011;25188;51.958;5.842;2023-07-24T00:28:33;2.72;;;1.00;;
39020;SDS011;25188;51.958;5.842;2023-07-24T00:30:58;2.63;;;1.10;;
39020;SDS011;25188;51.958;5.842;2023-07-24T00:33:24;2.97;;;0.90;;
39020;SDS011;25188;51.958;5.842;2023-07-24T00:35:50;2.67;;;1.20;;
39020;SDS011;25188;51.958;5.842;2023-07-24T00:38:15;3.00;;;1.20;;
39020;SDS011;25188;51.958;5.842;2023-07-24T00:40:41;2.72;;;1.02;;
39020;SDS011;25188;51.958;5.842;2023-07-24T00:43:06;2.55;;;0.95;;
39020;SDS011;25188;51.958;5.842;2023-07-24T00:45:32;2.65;;;1.35;;
39020;SDS011;25188;51.958;5.842;2023-07-24T00:47:59;3.65;;;1.20;;
39020;SDS011;25188;51.958;5.842;2023-07-24T00:50:25;4.82;;;1.00;;
39020;SDS011;25188;51.958;5.842;2023-07-24T00:52:52;2.45;;;1.20;;
39020;SDS011;25188;51.958;5.842;2023-07-24T00:55:19;2.72;;;1.10;;
39020;SDS011;25188;51.958;5.842;2023-07-24T00:57:44;4.28;;;1.20;;
39020;SDS011;25188;51.958;5.842;2023-07-24T01:00:10;2.10;;;0.95;;
39020;SDS011;25188;51.958;5.842;2023-07-24T01:02:36;2.10;;;0.90;;
39020;SDS011;25188;51.958;5.842;2023-07-24T01:05:03;3.40;;;1.00;;
39020;SDS011;25188;51.958;5.842;2023-07-24T01:07:29;2.33;;;1.10;;
39020;SDS011;25188;51.958;5.842;2023-07-24T01:09:55;2.13;;;0.88;;
39020;SDS011;25188;51.958;5.842;2023-07-24T01:15:18;3.15;;;1.00;;
39020;SDS011;25188;51.958;5.842;2023-07-24T01:17:50;2.33;;;1.05;;
39020;SDS011;25188;51.958;5.842;2023-07-24T01:20:22;5.68;;;1.27;;
39020;SDS011;25188;51.958;5.842;2023-07-24T01:23:03;2.65;;;1.15;;
39020;SDS011;25188;51.958;5.842;2023-07-24T01:25:56;3.28;;;1.77;;
39020;SDS011;25188;51.958;5.842;2023-07-24T01:28:23;2.65;;;1.60;;
39020;SDS011;25188;51.958;5.842;2023-07-24T01:30:50;6.15;;;1.80;;
39020;SDS011;25188;51.958;5.842;2023-07-24T01:33:16;4.30;;;2.00;;
39020;SDS011;25188;51.958;5.842;2023-07-24T01:35:42;6.05;;;2.72;;
39020;SDS011;25188;51.958;5.842;2023-07-24T01:38:10;4.70;;;2.47;;
39020;SDS011;25188;51.958;5.842;2023-07-24T01:40:38;4.90;;;2.55;;
39020;SDS011;25188;51.958;5.842;2023-07-24T01:43:05;3.30;;;1.92;;
39020;SDS011;25188;51.958;5.842;2023-07-24T01:45:30;4.40;;;2.33;;
39020;SDS011;25188;51.958;5.842;2023-07-24T01:47:57;4.15;;;2.08;;
39020;SDS011;25188;51.958;5.842;2023-07-24T01:50:22;5.10;;;2.30;;
39020;SDS011;25188;51.958;5.842;2023-07-24T01:52:48;4.43;;;2.17;;
39020;SDS011;25188;51.958;5.842;2023-07-24T01:55:14;3.60;;;2.05;;
39020;SDS011;25188;51.958;5.842;2023-07-24T01:57:39;4.55;;;2.22;;
39020;SDS011;25188;51.958;5.842;2023-07-24T02:00:05;3.25;;;1.52;;
39020;SDS011;25188;51.958;5.842;2023-07-24T02:02:31;4.90;;;1.83;;
39020;SDS011;25188;51.958;5.842;2023-07-24T02:04:57;3.67;;;2.13;;
39020;SDS011;25188;51.958;5.842;2023-07-24T02:07:22;3.85;;;2.25;;
39020;SDS011;25188;51.958;5.842;2023-07-24T02:09:48;3.10;;;2.00;;
39020;SDS011;25188;51.958;5.842;2023-07-24T02:12:13;3.83;;;1.88;;
39020;SDS011;25188;51.958;5.842;2023-07-24T02:14:39;3.80;;;2.35;;
39020;SDS011;25188;51.958;5.842;2023-07-24T02:17:04;2.97;;;1.65;;
39020;SDS011;25188;51.958;5.842;2023-07-24T02:19:30;5.10;;;2.63;;
39020;SDS011;25188;51.958;5.842;2023-07-24T02:21:56;3.95;;;2.10;;
39020;SDS011;25188;51.958;5.842;2023-07-24T02:24:21;3.97;;;2.05;;
39020;SDS011;25188;51.958;5.842;2023-07-24T02:26:47;3.92;;;2.38;;
39020;SDS011;25188;51.958;5.842;2023-07-24T02:29:12;4.30;;;2.13;;
39020;SDS011;25188;51.958;5.842;2023-07-24T02:31:38;3.92;;;2.25;;
39020;SDS011;25188;51.958;5.842;2023-07-24T02:34:04;5.18;;;2.40;;
39020;SDS011;25188;51.958;5.842;2023-07-24T02:36:29;4.30;;;2.33;;
39020;SDS011;25188;51.958;5.842;2023-07-24T02:38:55;4.70;;;2.38;;
39020;SDS011;25188;51.958;5.842;2023-07-24T02:41:20;4.43;;;2.67;;
39020;SDS011;25188;51.958;5.842;2023-07-24T02:43:46;4.38;;;2.30;;
39020;SDS011;25188;51.958;5.842;2023-07-24T02:46:12;4.10;;;2.45;;
39020;SDS011;25188;51.958;5.842;2023-07-24T02:48:37;6.20;;;2.75;;
39020;SDS011;25188;51.958;5.842;2023-07-24T02:51:03;5.90;;;2.88;;
39020;SDS011;25188;51.958;5.842;2023-07-24T02:53:28;6.28;;;2.50;;
39020;SDS011;25188;51.958;5.842;2023-07-24T02:55:54;4.18;;;2.40;;
39020;SDS011;25188;51.958;5.842;2023-07-24T02:58:20;7.82;;;2.97;;
39020;SDS011;25188;51.958;5.842;2023-07-24T03:00:46;5.25;;;2.55;;
39020;SDS011;25188;51.958;5.842;2023-07-24T03:03:11;4.32;;;2.47;;
39020;SDS011;25188;51.958;5.842;2023-07-24T03:05:37;5.25;;;2.80;;
39020;SDS011;25188;51.958;5.842;2023-07-24T03:08:03;4.10;;;2.38;;
39020;SDS011;25188;51.958;5.842;2023-07-24T03:10:28;5.28;;;2.88;;
39020;SDS011;25188;51.958;5.842;2023-07-24T03:12:54;4.40;;;2.85;;
39020;SDS011;25188;51.958;5.842;2023-07-24T03:15:20;7.70;;;3.42;;
39020;SDS011;25188;51.958;5.842;2023-07-24T03:17:45;5.78;;;3.25;;
39020;SDS011;25188;51.958;5.842;2023-07-24T03:20:15;6.38;;;3.17;;
39020;SDS011;25188;51.958;5.842;2023-07-24T03:22:42;4.55;;;3.03;;
39020;SDS011;25188;51.958;5.842;2023-07-24T03:25:10;7.00;;;3.22;;
39020;SDS011;25188;51.958;5.842;2023-07-24T03:27:36;5.45;;;2.58;;
39020;SDS011;25188;51.958;5.842;2023-07-24T03:30:02;6.20;;;3.45;;
39020;SDS011;25188;51.958;5.842;2023-07-24T03:32:28;5.90;;;3.38;;
39020;SDS011;25188;51.958;5.842;2023-07-24T03:34:54;5.18;;;3.13;;
39020;SDS011;25188;51.958;5.842;2023-07-24T03:37:19;6.63;;;3.55;;
39020;SDS011;25188;51.958;5.842;2023-07-24T03:39:45;6.07;;;4.00;;
39020;SDS011;25188;51.958;5.842;2023-07-24T03:42:11;6.85;;;3.80;;
39020;SDS011;25188;51.958;5.842;2023-07-24T03:44:40;7.50;;;4.95;;
39020;SDS011;25188;51.958;5.842;2023-07-24T03:47:06;8.48;;;4.15;;
39020;SDS011;25188;51.958;5.842;2023-07-24T03:49:32;7.25;;;4.45;;
39020;SDS011;25188;51.958;5.842;2023-07-24T03:51:58;8.25;;;4.95;;
39020;SDS011;25188;51.958;5.842;2023-07-24T03:54:24;8.52;;;4.85;;
39020;SDS011;25188;51.958;5.842;2023-07-24T03:56:50;6.88;;;4.43;;
39020;SDS011;25188;51.958;5.842;2023-07-24T03:59:15;7.95;;;4.63;;
39020;SDS011;25188;51.958;5.842;2023-07-24T04:01:41;7.15;;;4.80;;
39020;SDS011;25188;51.958;5.842;2023-07-24T04:04:06;6.93;;;4.38;;
39020;SDS011;25188;51.958;5.842;2023-07-24T04:06:32;7.50;;;4.55;;
39020;SDS011;25188;51.958;5.842;2023-07-24T04:08:58;6.40;;;4.05;;
39020;SDS011;25188;51.958;5.842;2023-07-24T04:11:23;5.78;;;3.70;;
39020;SDS011;25188;51.958;5.842;2023-07-24T04:13:49;6.68;;;3.85;;
39020;SDS011;25188;51.958;5.842;2023-07-24T04:16:14;5.93;;;3.47;;
39020;SDS011;25188;51.958;5.842;2023-07-24T04:18:40;6.45;;;3.75;;
39020;SDS011;25188;51.958;5.842;2023-07-24T04:21:05;5.63;;;3.67;;
39020;SDS011;25188;51.958;5.842;2023-07-24T04:23:31;6.90;;;4.47;;
39020;SDS011;25188;51.958;5.842;2023-07-24T04:25:57;6.28;;;3.75;;
39020;SDS011;25188;51.958;5.842;2023-07-24T04:28:22;6.10;;;4.15;;
39020;SDS011;25188;51.958;5.842;2023-07-24T04:30:48;6.38;;;3.92;;
39020;SDS011;25188;51.958;5.842;2023-07-24T04:33:13;6.68;;;4.28;;
39020;SDS011;25188;51.958;5.842;2023-07-24T04:35:39;6.38;;;3.65;;
39020;SDS011;25188;51.958;5.842;2023-07-24T04:38:05;5.80;;;3.85;;
39020;SDS011;25188;51.958;5.842;2023-07-24T04:40:30;5.65;;;3.95;;
39020;SDS011;25188;51.958;5.842;2023-07-24T04:42:56;5.40;;;3.72;;
39020;SDS011;25188;51.958;5.842;2023-07-24T04:45:21;6.00;;;3.58;;
39020;SDS011;25188;51.958;5.842;2023-07-24T04:47:47;6.70;;;4.15;;
39020;SDS011;25188;51.958;5.842;2023-07-24T04:50:13;5.78;;;3.65;;
39020;SDS011;25188;51.958;5.842;2023-07-24T04:52:38;6.93;;;4.65;;
39020;SDS011;25188;51.958;5.842;2023-07-24T04:55:04;6.35;;;4.07;;
39020;SDS011;25188;51.958;5.842;2023-07-24T04:57:30;6.63;;;4.93;;
39020;SDS011;25188;51.958;5.842;2023-07-24T04:59:55;8.20;;;4.80;;
39020;SDS011;25188;51.958;5.842;2023-07-24T05:02:21;7.50;;;4.68;;
39020;SDS011;25188;51.958;5.842;2023-07-24T05:04:47;8.95;;;5.45;;
39020;SDS011;25188;51.958;5.842;2023-07-24T05:07:12;9.13;;;6.68;;
39020;SDS011;25188;51.958;5.842;2023-07-24T05:09:38;7.72;;;5.63;;
39020;SDS011;25188;51.958;5.842;2023-07-24T05:12:04;9.45;;;6.70;;
39020;SDS011;25188;51.958;5.842;2023-07-24T05:14:30;7.05;;;5.30;;
39020;SDS011;25188;51.958;5.842;2023-07-24T05:16:55;8.20;;;5.63;;
39020;SDS011;25188;51.958;5.842;2023-07-24T05:19:21;8.63;;;5.70;;
39020;SDS011;25188;51.958;5.842;2023-07-24T05:21:46;9.05;;;6.30;;
39020;SDS011;25188;51.958;5.842;2023-07-24T05:24:12;7.97;;;5.30;;
39020;SDS011;25188;51.958;5.842;2023-07-24T05:26:38;8.13;;;5.25;;
39020;SDS011;25188;51.958;5.842;2023-07-24T05:29:03;6.80;;;5.30;;
39020;SDS011;25188;51.958;5.842;2023-07-24T05:31:29;8.77;;;5.65;;
39020;SDS011;25188;51.958;5.842;2023-07-24T05:33:54;7.75;;;5.30;;
39020;SDS011;25188;51.958;5.842;2023-07-24T05:36:20;9.23;;;5.43;;
39020;SDS011;25188;51.958;5.842;2023-07-24T05:38:45;7.88;;;5.30;;
39020;SDS011;25188;51.958;5.842;2023-07-24T05:41:11;11.35;;;6.88;;
39020;SDS011;25188;51.958;5.842;2023-07-24T05:43:37;10.52;;;6.20;;
39020;SDS011;25188;51.958;5.842;2023-07-24T05:46:02;10.68;;;6.63;;
39020;SDS011;25188;51.958;5.842;2023-07-24T05:48:28;9.85;;;6.60;;
39020;SDS011;25188;51.958;5.842;2023-07-24T05:50:53;9.02;;;5.75;;
39020;SDS011;25188;51.958;5.842;2023-07-24T05:53:19;9.13;;;6.00;;
39020;SDS011;25188;51.958;5.842;2023-07-24T05:55:44;7.75;;;5.47;;
39020;SDS011;25188;51.958;5.842;2023-07-24T05:58:10;7.05;;;4.95;;
39020;SDS011;25188;51.958;5.842;2023-07-24T06:00:36;8.27;;;5.32;;
39020;SDS011;25188;51.958;5.842;2023-07-24T06:03:02;11.00;;;6.50;;
39020;SDS011;25188;51.958;5.842;2023-07-24T06:05:28;9.35;;;6.22;;
39020;SDS011;25188;51.958;5.842;2023-07-24T06:07:54;9.85;;;5.55;;
39020;SDS011;25188;51.958;5.842;2023-07-24T06:10:20;7.47;;;5.47;;
39020;SDS011;25188;51.958;5.842;2023-07-24T06:12:45;8.23;;;6.25;;
39020;SDS011;25188;51.958;5.842;2023-07-24T06:15:12;9.15;;;5.82;;
39020;SDS011;25188;51.958;5.842;2023-07-24T06:17:38;10.82;;;6.22;;
39020;SDS011;25188;51.958;5.842;2023-07-24T06:20:04;7.95;;;5.72;;
39020;SDS011;25188;51.958;5.842;2023-07-24T06:22:30;8.18;;;5.13;;
39020;SDS011;25188;51.958;5.842;2023-07-24T06:24:56;8.20;;;5.70;;
39020;SDS011;25188;51.958;5.842;2023-07-24T06:27:21;7.30;;;5.55;;
39020;SDS011;25188;51.958;5.842;2023-07-24T06:29:47;8.65;;;5.82;;
39020;SDS011;25188;51.958;5.842;2023-07-24T06:32:12;8.07;;;5.15;;
39020;SDS011;25188;51.958;5.842;2023-07-24T06:34:38;8.95;;;5.82;;
39020;SDS011;25188;51.958;5.842;2023-07-24T06:37:04;10.00;;;7.15;;
39020;SDS011;25188;51.958;5.842;2023-07-24T06:39:29;8.65;;;6.10;;
39020;SDS011;25188;51.958;5.842;2023-07-24T06:41:56;9.65;;;5.68;;
39020;SDS011;25188;51.958;5.842;2023-07-24T06:44:21;8.15;;;5.25;;
39020;SDS011;25188;51.958;5.842;2023-07-24T06:46:47;7.63;;;5.20;;
39020;SDS011;25188;51.958;5.842;2023-07-24T06:49:12;9.02;;;6.93;;
39020;SDS011;25188;51.958;5.842;2023-07-24T06:51:38;9.63;;;5.55;;
39020;SDS011;25188;51.958;5.842;2023-07-24T06:54:04;9.20;;;6.07;;
39020;SDS011;25188;51.958;5.842;2023-07-24T06:56:30;9.93;;;6.95;;
39020;SDS011;25188;51.958;5.842;2023-07-24T06:58:56;9.90;;;5.93;;
39020;SDS011;25188;51.958;5.842;2023-07-24T07:01:22;8.98;;;5.93;;
39020;SDS011;25188;51.958;5.842;2023-07-24T07:03:48;10.35;;;7.28;;
39020;SDS011;25188;51.958;5.842;2023-07-24T07:06:14;10.73;;;7.55;;
39020;SDS011;25188;51.958;5.842;2023-07-24T07:08:39;11.65;;;7.80;;
39020;SDS011;25188;51.958;5.842;2023-07-24T07:11:05;11.65;;;8.23;;
39020;SDS011;25188;51.958;5.842;2023-07-24T07:13:30;11.10;;;8.43;;
39020;SDS011;25188;51.958;5.842;2023-07-24T07:15:56;10.88;;;8.05;;
39020;SDS011;25188;51.958;5.842;2023-07-24T07:18:22;9.77;;;7.10;;
39020;SDS011;25188;51.958;5.842;2023-07-24T07:20:48;10.40;;;7.85;;
39020;SDS011;25188;51.958;5.842;2023-07-24T07:23:16;11.38;;;7.57;;
39020;SDS011;25188;51.958;5.842;2023-07-24T07:25:42;10.95;;;8.45;;
39020;SDS011;25188;51.958;5.842;2023-07-24T07:28:10;14.43;;;9.00;;
39020;SDS011;25188;51.958;5.842;2023-07-24T07:30:36;11.07;;;7.90;;
39020;SDS011;25188;51.958;5.842;2023-07-24T07:33:02;13.35;;;9.20;;
39020;SDS011;25188;51.958;5.842;2023-07-24T07:35:27;12.32;;;8.73;;
39020;SDS011;25188;51.958;5.842;2023-07-24T07:37:53;13.88;;;9.32;;
39020;SDS011;25188;51.958;5.842;2023-07-24T07:40:19;10.20;;;7.93;;
39020;SDS011;25188;51.958;5.842;2023-07-24T07:42:44;14.23;;;7.68;;
39020;SDS011;25188;51.958;5.842;2023-07-24T07:45:10;12.15;;;8.88;;
39020;SDS011;25188;51.958;5.842;2023-07-24T07:47:36;10.02;;;7.68;;
39020;SDS011;25188;51.958;5.842;2023-07-24T07:50:02;12.63;;;8.90;;
39020;SDS011;25188;51.958;5.842;2023-07-24T07:52:28;11.93;;;9.05;;
39020;SDS011;25188;51.958;5.842;2023-07-24T07:54:53;12.32;;;8.52;;
39020;SDS011;25188;51.958;5.842;2023-07-24T07:57:19;13.15;;;8.43;;
39020;SDS011;25188;51.958;5.842;2023-07-24T07:59:44;12.15;;;7.93;;
39020;SDS011;25188;51.958;5.842;2023-07-24T08:02:10;11.82;;;8.63;;
39020;SDS011;25188;51.958;5.842;2023-07-24T08:04:36;13.35;;;7.82;;
39020;SDS011;25188;51.958;5.842;2023-07-24T08:07:01;11.68;;;8.88;;
39020;SDS011;25188;51.958;5.842;2023-07-24T08:09:27;11.82;;;8.52;;
39020;SDS011;25188;51.958;5.842;2023-07-24T08:11:53;13.75;;;9.60;;
39020;SDS011;25188;51.958;5.842;2023-07-24T08:14:19;16.35;;;8.93;;
39020;SDS011;25188;51.958;5.842;2023-07-24T08:16:44;11.35;;;8.18;;
39020;SDS011;25188;51.958;5.842;2023-07-24T08:19:13;12.73;;;8.88;;
39020;SDS011;25188;51.958;5.842;2023-07-24T08:21:39;12.43;;;8.48;;
39020;SDS011;25188;51.958;5.842;2023-07-24T08:24:05;11.10;;;8.30;;
39020;SDS011;25188;51.958;5.842;2023-07-24T08:26:31;13.48;;;7.45;;
39020;SDS011;25188;51.958;5.842;2023-07-24T08:28:56;12.02;;;8.82;;
39020;SDS011;25188;51.958;5.842;2023-07-24T08:31:22;13.57;;;10.27;;
39020;SDS011;25188;51.958;5.842;2023-07-24T08:33:48;11.38;;;8.10;;
39020;SDS011;25188;51.958;5.842;2023-07-24T08:36:13;10.18;;;8.15;;
39020;SDS011;25188;51.958;5.842;2023-07-24T08:38:39;11.77;;;8.50;;
39020;SDS011;25188;51.958;5.842;2023-07-24T08:41:06;11.55;;;7.85;;
39020;SDS011;25188;51.958;5.842;2023-07-24T08:43:34;12.13;;;8.13;;
39020;SDS011;25188;51.958;5.842;2023-07-24T08:46:01;10.02;;;7.45;;
39020;SDS011;25188;51.958;5.842;2023-07-24T08:48:34;11.93;;;7.72;;
39020;SDS011;25188;51.958;5.842;2023-07-24T08:51:02;10.40;;;7.22;;
39020;SDS011;25188;51.958;5.842;2023-07-24T08:53:33;10.70;;;8.18;;
39020;SDS011;25188;51.958;5.842;2023-07-24T08:56:03;9.25;;;7.35;;
39020;SDS011;25188;51.958;5.842;2023-07-24T08:58:29;9.38;;;7.32;;
39020;SDS011;25188;51.958;5.842;2023-07-24T09:00:56;12.10;;;8.15;;
39020;SDS011;25188;51.958;5.842;2023-07-24T09:03:22;11.38;;;7.28;;
39020;SDS011;25188;51.958;5.842;2023-07-24T09:05:48;10.30;;;7.35;;
39020;SDS011;25188;51.958;5.842;2023-07-24T09:08:14;10.52;;;6.00;;
39020;SDS011;25188;51.958;5.842;2023-07-24T09:10:40;9.07;;;6.05;;
39020;SDS011;25188;51.958;5.842;2023-07-24T09:13:06;10.23;;;7.05;;
39020;SDS011;25188;51.958;5.842;2023-07-24T09:15:42;8.65;;;5.88;;
39020;SDS011;25188;51.958;5.842;2023-07-24T09:18:09;8.60;;;6.40;;
39020;SDS011;25188;51.958;5.842;2023-07-24T09:20:42;8.15;;;6.13;;
39020;SDS011;25188;51.958;5.842;2023-07-24T09:23:09;10.85;;;6.65;;
39020;SDS011;25188;51.958;5.842;2023-07-24T09:25:36;9.95;;;6.90;;
39020;SDS011;25188;51.958;5.842;2023-07-24T09:28:13;9.50;;;6.78;;
39020;SDS011;25188;51.958;5.842;2023-07-24T09:30:41;8.32;;;5.75;;
39020;SDS011;25188;51.958;5.842;2023-07-24T09:33:15;8.88;;;6.47;;
39020;SDS011;25188;51.958;5.842;2023-07-24T09:35:41;10.38;;;6.57;;
39020;SDS011;25188;51.958;5.842;2023-07-24T09:38:07;8.05;;;5.72;;
39020;SDS011;25188;51.958;5.842;2023-07-24T09:40:44;9.18;;;5.40;;
39020;SDS011;25188;51.958;5.842;2023-07-24T09:43:17;8.60;;;4.75;;
39020;SDS011;25188;51.958;5.842;2023-07-24T09:45:44;7.40;;;4.55;;
39020;SDS011;25188;51.958;5.842;2023-07-24T09:48:10;9.93;;;5.93;;
39020;SDS011;25188;51.958;5.842;2023-07-24T09:50:39;9.18;;;5.88;;
39020;SDS011;25188;51.958;5.842;2023-07-24T09:53:06;7.45;;;5.10;;
39020;SDS011;25188;51.958;5.842;2023-07-24T09:55:51;7.47;;;5.07;;
39020;SDS011;25188;51.958;5.842;2023-07-24T09:58:22;6.43;;;3.83;;
39020;SDS011;25188;51.958;5.842;2023-07-24T10:00:49;5.90;;;3.72;;
39020;SDS011;25188;51.958;5.842;2023-07-24T10:03:16;6.95;;;4.53;;
39020;SDS011;25188;51.958;5.842;2023-07-24T10:05:43;8.27;;;5.30;;
39020;SDS011;25188;51.958;5.842;2023-07-24T10:08:13;9.93;;;5.78;;
39020;SDS011;25188;51.958;5.842;2023-07-24T10:10:40;7.10;;;4.13;;
39020;SDS011;25188;51.958;5.842;2023-07-24T10:13:06;7.30;;;4.25;;
39020;SDS011;25188;51.958;5.842;2023-07-24T10:15:36;7.78;;;4.47;;
39020;SDS011;25188;51.958;5.842;2023-07-24T10:18:03;9.52;;;3.90;;
39020;SDS011;25188;51.958;5.842;2023-07-24T10:20:48;8.27;;;4.50;;
39020;SDS011;25188;51.958;5.842;2023-07-24T10:23:24;8.10;;;5.00;;
39020;SDS011;25188;51.958;5.842;2023-07-24T10:25:51;6.97;;;4.75;;
39020;SDS011;25188;51.958;5.842;2023-07-24T10:28:17;6.65;;;4.35;;
39020;SDS011;25188;51.958;5.842;2023-07-24T10:30:43;6.20;;;4.65;;
39020;SDS011;25188;51.958;5.842;2023-07-24T10:33:10;7.28;;;4.82;;
39020;SDS011;25188;51.958;5.842;2023-07-24T10:35:46;8.80;;;5.00;;
39020;SDS011;25188;51.958;5.842;2023-07-24T10:38:15;7.85;;;5.20;;
39020;SDS011;25188;51.958;5.842;2023-07-24T10:40:42;8.13;;;5.28;;
39020;SDS011;25188;51.958;5.842;2023-07-24T10:43:10;7.82;;;4.90;;
39020;SDS011;25188;51.958;5.842;2023-07-24T10:48:24;7.85;;;4.82;;
39020;SDS011;25188;51.958;5.842;2023-07-24T10:50:51;7.70;;;4.72;;
39020;SDS011;25188;51.958;5.842;2023-07-24T10:53:19;8.15;;;4.63;;
39020;SDS011;25188;51.958;5.842;2023-07-24T10:55:46;9.57;;;4.88;;
39020;SDS011;25188;51.958;5.842;2023-07-24T10:58:12;8.13;;;4.65;;
39020;SDS011;25188;51.958;5.842;2023-07-24T11:00:39;6.97;;;4.15;;
39020;SDS011;25188;51.958;5.842;2023-07-24T11:03:07;7.05;;;4.97;;
39020;SDS011;25188;51.958;5.842;2023-07-24T11:05:38;6.68;;;4.30;;
39020;SDS011;25188;51.958;5.842;2023-07-24T11:08:08;6.88;;;4.13;;
39020;SDS011;25188;51.958;5.842;2023-07-24T11:10:39;7.15;;;4.22;;
39020;SDS011;25188;51.958;5.842;2023-07-24T11:13:20;6.90;;;4.03;;
39020;SDS011;25188;51.958;5.842;2023-07-24T11:15:50;7.25;;;4.20;;
39020;SDS011;25188;51.958;5.842;2023-07-24T11:18:17;6.93;;;4.10;;
39020;SDS011;25188;51.958;5.842;2023-07-24T11:23:12;8.05;;;4.40;;
39020;SDS011;25188;51.958;5.842;2023-07-24T11:25:38;5.15;;;3.45;;
39020;SDS011;25188;51.958;5.842;2023-07-24T11:28:08;5.95;;;4.03;;
39020;SDS011;25188;51.958;5.842;2023-07-24T11:30:35;8.30;;;4.50;;
39020;SDS011;25188;51.958;5.842;2023-07-24T11:33:08;7.55;;;4.90;;
39020;SDS011;25188;51.958;5.842;2023-07-24T11:35:35;7.05;;;4.43;;
39020;SDS011;25188;51.958;5.842;2023-07-24T11:38:03;8.93;;;5.05;;
39020;SDS011;25188;51.958;5.842;2023-07-24T11:43:02;6.63;;;4.30;;
39020;SDS011;25188;51.958;5.842;2023-07-24T11:45:29;7.18;;;4.93;;
39020;SDS011;25188;51.958;5.842;2023-07-24T11:47:55;6.75;;;4.28;;
39020;SDS011;25188;51.958;5.842;2023-07-24T11:50:21;7.78;;;4.38;;
39020;SDS011;25188;51.958;5.842;2023-07-24T11:52:49;7.25;;;4.35;;
39020;SDS011;25188;51.958;5.842;2023-07-24T11:55:17;10.68;;;4.85;;
39020;SDS011;25188;51.958;5.842;2023-07-24T11:57:56;9.70;;;5.05;;
39020;SDS011;25188;51.958;5.842;2023-07-24T12:00:22;9.35;;;5.40;;
39020;SDS011;25188;51.958;5.842;2023-07-24T12:02:48;6.80;;;3.80;;
39020;SDS011;25188;51.958;5.842;2023-07-24T12:05:14;8.00;;;4.00;;
39020;SDS011;25188;51.958;5.842;2023-07-24T12:07:42;6.45;;;2.97;;
39020;SDS011;25188;51.958;5.842;2023-07-24T12:10:11;4.97;;;2.72;;
39020;SDS011;25188;51.958;5.842;2023-07-24T12:12:45;6.97;;;3.20;;
39020;SDS011;25188;51.958;5.842;2023-07-24T12:15:12;6.07;;;2.45;;
39020;SDS011;25188;51.958;5.842;2023-07-24T12:17:38;6.40;;;2.85;;
39020;SDS011;25188;51.958;5.842;2023-07-24T12:20:05;4.90;;;2.50;;
39020;SDS011;25188;51.958;5.842;2023-07-24T12:22:36;6.10;;;2.65;;
39020;SDS011;25188;51.958;5.842;2023-07-24T12:25:03;8.32;;;3.53;;
39020;SDS011;25188;51.958;5.842;2023-07-24T12:27:32;5.85;;;3.05;;
39020;SDS011;25188;51.958;5.842;2023-07-24T12:29:58;7.57;;;3.00;;
39020;SDS011;25188;51.958;5.842;2023-07-24T12:32:24;8.23;;;3.78;;
39020;SDS011;25188;51.958;5.842;2023-07-24T12:34:50;6.15;;;3.40;;
39020;SDS011;25188;51.958;5.842;2023-07-24T12:37:19;7.85;;;3.80;;
39020;SDS011;25188;51.958;5.842;2023-07-24T12:39:45;11.02;;;4.13;;
39020;SDS011;25188;51.958;5.842;2023-07-24T12:42:11;6.22;;;2.17;;
39020;SDS011;25188;51.958;5.842;2023-07-24T12:44:37;5.35;;;2.67;;
39020;SDS011;25188;51.958;5.842;2023-07-24T12:47:03;7.45;;;3.38;;
39020;SDS011;25188;51.958;5.842;2023-07-24T12:49:30;5.97;;;3.00;;
39020;SDS011;25188;51.958;5.842;2023-07-24T12:51:56;5.30;;;2.60;;
39020;SDS011;25188;51.958;5.842;2023-07-24T12:54:22;6.90;;;2.92;;
39020;SDS011;25188;51.958;5.842;2023-07-24T12:56:48;5.05;;;2.70;;
39020;SDS011;25188;51.958;5.842;2023-07-24T12:59:15;5.15;;;1.92;;
39020;SDS011;25188;51.958;5.842;2023-07-24T13:01:41;5.15;;;1.80;;
39020;SDS011;25188;51.958;5.842;2023-07-24T13:04:07;5.05;;;1.75;;
39020;SDS011;25188;51.958;5.842;2023-07-24T13:06:33;4.15;;;1.73;;
39020;SDS011;25188;51.958;5.842;2023-07-24T13:08:59;8.10;;;2.30;;
39020;SDS011;25188;51.958;5.842;2023-07-24T13:11:25;4.05;;;1.95;;
39020;SDS011;25188;51.958;5.842;2023-07-24T13:13:53;3.53;;;1.30;;
39020;SDS011;25188;51.958;5.842;2023-07-24T13:16:18;4.10;;;1.40;;
39020;SDS011;25188;51.958;5.842;2023-07-24T13:18:44;4.13;;;1.70;;
39020;SDS011;25188;51.958;5.842;2023-07-24T13:21:10;6.18;;;2.20;;
39020;SDS011;25188;51.958;5.842;2023-07-24T13:23:35;3.25;;;1.63;;
39020;SDS011;25188;51.958;5.842;2023-07-24T13:26:01;4.90;;;2.08;;
39020;SDS011;25188;51.958;5.842;2023-07-24T13:28:27;6.03;;;1.88;;
39020;SDS011;25188;51.958;5.842;2023-07-24T13:30:53;5.18;;;2.00;;
39020;SDS011;25188;51.958;5.842;2023-07-24T13:33:19;6.47;;;1.52;;
39020;SDS011;25188;51.958;5.842;2023-07-24T13:35:46;4.20;;;1.40;;
39020;SDS011;25188;51.958;5.842;2023-07-24T13:38:12;4.30;;;1.73;;
39020;SDS011;25188;51.958;5.842;2023-07-24T13:40:39;4.65;;;1.48;;
39020;SDS011;25188;51.958;5.842;2023-07-24T13:43:05;4.35;;;1.33;;
39020;SDS011;25188;51.958;5.842;2023-07-24T13:45:30;4.85;;;1.75;;
39020;SDS011;25188;51.958;5.842;2023-07-24T13:47:56;4.28;;;1.33;;
39020;SDS011;25188;51.958;5.842;2023-07-24T13:50:23;4.03;;;2.03;;
39020;SDS011;25188;51.958;5.842;2023-07-24T13:52:49;3.58;;;1.73;;
39020;SDS011;25188;51.958;5.842;2023-07-24T13:55:14;4.47;;;1.63;;
39020;SDS011;25188;51.958;5.842;2023-07-24T13:57:40;7.15;;;1.70;;
39020;SDS011;25188;51.958;5.842;2023-07-24T14:00:06;4.82;;;1.58;;
39020;SDS011;25188;51.958;5.842;2023-07-24T14:02:32;5.03;;;1.73;;
39020;SDS011;25188;51.958;5.842;2023-07-24T14:04:58;5.38;;;2.45;;
39020;SDS011;25188;51.958;5.842;2023-07-24T14:07:24;5.07;;;1.80;;
39020;SDS011;25188;51.958;5.842;2023-07-24T14:09:49;5.53;;;1.80;;
39020;SDS011;25188;51.958;5.842;2023-07-24T14:12:15;5.78;;;2.00;;
39020;SDS011;25188;51.958;5.842;2023-07-24T14:14:42;6.43;;;2.22;;
39020;SDS011;25188;51.958;5.842;2023-07-24T14:17:07;5.75;;;2.88;;
39020;SDS011;25188;51.958;5.842;2023-07-24T14:19:33;4.38;;;2.95;;
39020;SDS011;25188;51.958;5.842;2023-07-24T14:21:59;7.80;;;3.05;;
39020;SDS011;25188;51.958;5.842;2023-07-24T14:24:25;7.60;;;3.17;;
39020;SDS011;25188;51.958;5.842;2023-07-24T14:26:50;7.97;;;3.42;;
39020;SDS011;25188;51.958;5.842;2023-07-24T14:29:16;7.78;;;2.97;;
39020;SDS011;25188;51.958;5.842;2023-07-24T14:31:42;8.00;;;3.78;;
39020;SDS011;25188;51.958;5.842;2023-07-24T14:34:08;7.55;;;3.40;;
39020;SDS011;25188;51.958;5.842;2023-07-24T14:36:37;5.78;;;2.95;;
39020;SDS011;25188;51.958;5.842;2023-07-24T14:39:03;8.00;;;3.42;;
39020;SDS011;25188;51.958;5.842;2023-07-24T14:41:29;8.45;;;3.25;;
39020;SDS011;25188;51.958;5.842;2023-07-24T14:43:56;8.18;;;4.07;;
39020;SDS011;25188;51.958;5.842;2023-07-24T14:46:22;7.28;;;3.47;;
39020;SDS011;25188;51.958;5.842;2023-07-24T14:48:48;8.90;;;4.53;;
39020;SDS011;25188;51.958;5.842;2023-07-24T14:51:14;7.10;;;4.57;;
39020;SDS011;25188;51.958;5.842;2023-07-24T14:53:40;11.07;;;4.70;;